createdAt,value
2022-11-05T00:00:54.938Z,99.99
2022-11-05T00:01:55.795Z,99.99
2022-11-05T00:02:56.112Z,99.99
2022-11-05T00:03:54.975Z,99.99
2022-11-05T00:04:54.943Z,99.99
2022-11-05T00:05:54.860Z,99.99
2022-11-05T00:06:55.041Z,99.99
2022-11-05T00:07:54.858Z,99.99
2022-11-05T00:08:55.034Z,99.99
2022-11-05T00:09:55.956Z,99.99
2022-11-05T00:10:54.831Z,99.99
2022-11-05T00:11:54.804Z,99.99
2022-11-05T00:12:54.813Z,99.99
2022-11-05T00:13:54.811Z,99.99
2022-11-05T00:14:54.785Z,99.99
2022-11-05T00:15:54.795Z,99.99
2022-11-05T00:16:55.035Z,99.99
2022-11-05T00:17:54.722Z,99.99
2022-11-05T00:18:54.711Z,99.99
2022-11-05T00:19:54.684Z,99.99
2022-11-05T00:20:55.034Z,99.99
2022-11-05T00:21:54.743Z,99.99
2022-11-05T00:22:54.904Z,99.99
2022-11-05T00:23:54.666Z,99.99
2022-11-05T00:24:54.675Z,99.99
2022-11-05T00:25:54.823Z,99.99
2022-11-05T00:26:55.855Z,99.99
2022-11-05T00:27:54.589Z,99.99
2022-11-05T00:28:54.608Z,99.99
2022-11-05T00:29:55.530Z,99.99
2022-11-05T00:30:54.713Z,99.99
2022-11-05T00:31:54.842Z,99.99
2022-11-05T00:32:54.664Z,99.99
2022-11-05T00:33:54.519Z,99.99
2022-11-05T00:34:54.516Z,99.99
2022-11-05T00:35:54.532Z,99.99
2022-11-05T00:36:55.418Z,99.99
2022-11-05T00:37:54.538Z,99.99
2022-11-05T00:38:55.217Z,99.99
2022-11-05T00:39:54.455Z,99.99
2022-11-05T00:40:54.459Z,99.99
2022-11-05T00:41:55.444Z,99.99
2022-11-05T00:42:54.408Z,99.99
2022-11-05T00:43:54.378Z,99.99
2022-11-05T00:44:54.427Z,99.99
2022-11-05T00:45:54.382Z,99.99
2022-11-05T00:46:59.619Z,99.99
2022-11-05T00:47:55.541Z,99.99
2022-11-05T00:48:54.319Z,99.99
2022-11-05T00:49:55.245Z,99.99
2022-11-05T00:50:54.288Z,99.99
2022-11-05T00:51:54.358Z,99.99
2022-11-05T00:52:54.589Z,99.99
2022-11-05T00:53:54.527Z,99.99
2022-11-05T00:54:54.258Z,99.99
2022-11-05T00:55:54.749Z,99.99
2022-11-05T00:56:54.969Z,99.99
2022-11-05T00:57:54.254Z,99.99
2022-11-05T00:58:54.194Z,99.99
2022-11-05T00:59:54.705Z,99.99
2022-11-05T01:00:54.301Z,99.99
2022-11-05T01:01:54.309Z,99.99
2022-11-05T01:02:54.245Z,99.99
2022-11-05T01:03:54.169Z,99.99
2022-11-05T01:04:54.087Z,99.99
2022-11-05T01:05:54.080Z,99.99
2022-11-05T01:06:55.089Z,99.99
2022-11-05T01:07:54.736Z,99.99
2022-11-05T01:08:54.160Z,99.99
2022-11-05T01:09:54.431Z,99.99
2022-11-05T01:10:54.098Z,99.99
2022-11-05T01:11:55.580Z,99.99
2022-11-05T01:12:53.990Z,99.99
2022-11-05T01:13:54.040Z,99.99
2022-11-05T01:14:53.969Z,99.99
2022-11-05T01:15:53.980Z,99.99
2022-11-05T01:16:54.957Z,99.99
2022-11-05T01:17:53.960Z,99.99
2022-11-05T01:18:54.009Z,99.99
2022-11-05T01:19:53.908Z,99.99
2022-11-05T01:20:54.349Z,99.99
2022-11-05T01:21:54.371Z,99.99
2022-11-05T01:22:53.993Z,99.99
2022-11-05T01:23:53.871Z,99.99
2022-11-05T01:24:53.913Z,99.99
2022-11-05T01:25:53.880Z,99.99
2022-11-05T01:26:54.073Z,99.99
2022-11-05T01:27:53.814Z,99.99
2022-11-05T01:28:53.872Z,99.99
2022-11-05T01:29:54.175Z,99.99
2022-11-05T01:30:54.831Z,99.99
2022-11-05T01:31:53.791Z,99.99
2022-11-05T01:32:53.841Z,99.99
2022-11-05T01:33:54.555Z,99.99
2022-11-05T01:34:54.965Z,99.99
2022-11-05T01:35:53.732Z,99.99
2022-11-05T01:36:54.772Z,99.99
2022-11-05T01:37:53.672Z,99.99
2022-11-05T01:38:53.652Z,99.99
2022-11-05T01:39:53.659Z,99.99
2022-11-05T01:40:53.748Z,99.99
2022-11-05T01:41:53.644Z,99.99
2022-11-05T01:42:53.650Z,99.99
2022-11-05T01:43:53.640Z,99.99
2022-11-05T01:44:53.594Z,99.99
2022-11-05T01:45:53.620Z,99.99
2022-11-05T01:46:54.566Z,99.99
2022-11-05T01:47:54.634Z,99.99
2022-11-05T01:48:57.276Z,99.99
2022-11-05T01:49:54.576Z,99.99
2022-11-05T01:50:54.454Z,99.99
2022-11-05T01:51:53.535Z,99.99
2022-11-05T01:52:53.494Z,99.99
2022-11-05T01:53:53.495Z,99.99
2022-11-05T01:54:53.508Z,99.99
2022-11-05T01:55:53.457Z,99.99
2022-11-05T01:56:54.465Z,99.99
2022-11-05T01:57:53.557Z,99.99
2022-11-05T01:58:54.196Z,99.99
2022-11-05T01:59:53.425Z,99.99
2022-11-05T02:00:53.398Z,99.99
2022-11-05T02:01:53.646Z,99.99
2022-11-05T02:02:53.567Z,99.99
2022-11-05T02:03:54.225Z,99.99
2022-11-05T02:04:53.357Z,99.99
2022-11-05T02:05:53.365Z,99.99
2022-11-05T02:06:53.341Z,99.99
2022-11-05T02:07:53.665Z,99.99
2022-11-05T02:08:53.278Z,99.99
2022-11-05T02:09:53.369Z,99.99
2022-11-05T02:10:54.222Z,99.99
2022-11-05T02:11:53.330Z,99.99
2022-11-05T02:12:53.269Z,99.99
2022-11-05T02:13:53.216Z,99.99
2022-11-05T02:14:53.212Z,99.99
2022-11-05T02:15:53.191Z,99.99
2022-11-05T02:16:53.188Z,99.99
2022-11-05T02:17:53.158Z,99.99
2022-11-05T02:18:53.177Z,99.99
2022-11-05T02:19:53.141Z,99.99
2022-11-05T02:20:53.135Z,99.99
2022-11-05T02:21:53.129Z,99.99
2022-11-05T02:22:53.128Z,99.99
2022-11-05T02:23:54.357Z,99.99
2022-11-05T02:24:53.196Z,99.99
2022-11-05T02:25:53.211Z,99.99
2022-11-05T02:26:53.097Z,99.99
2022-11-05T02:27:53.078Z,99.99
2022-11-05T02:28:53.540Z,99.99
2022-11-05T02:29:53.190Z,99.99
2022-11-05T02:30:53.022Z,99.99
2022-11-05T02:31:53.111Z,99.99
2022-11-05T02:32:52.977Z,99.99
2022-11-05T02:33:52.990Z,99.99
2022-11-05T02:34:53.809Z,99.99
2022-11-05T02:35:52.959Z,99.99
2022-11-05T02:36:53.472Z,99.99
2022-11-05T02:37:52.928Z,99.99
2022-11-05T02:38:52.896Z,99.99
2022-11-05T02:39:52.871Z,99.99
2022-11-05T02:40:52.871Z,99.99
2022-11-05T02:41:52.891Z,99.99
2022-11-05T02:42:52.882Z,99.99
2022-11-05T02:43:52.863Z,99.99
2022-11-05T02:44:52.811Z,99.99
2022-11-05T02:45:52.839Z,99.99
2022-11-05T02:46:52.873Z,99.99
2022-11-05T02:47:52.894Z,99.99
2022-11-05T02:48:52.760Z,99.99
2022-11-05T02:49:53.905Z,99.99
2022-11-05T02:50:52.762Z,99.99
2022-11-05T02:51:52.722Z,99.99
2022-11-05T02:52:53.059Z,99.99
2022-11-05T02:53:52.732Z,99.99
2022-11-05T02:54:52.755Z,99.99
2022-11-05T02:55:52.693Z,99.99
2022-11-05T02:56:53.352Z,99.99
2022-11-05T02:57:52.660Z,99.99
2022-11-05T02:58:52.704Z,99.99
2022-11-05T02:59:52.658Z,99.99
2022-11-05T03:00:52.615Z,99.99
2022-11-05T03:01:52.756Z,99.99
2022-11-05T03:02:52.999Z,99.99
2022-11-05T03:03:52.689Z,99.99
2022-11-05T03:04:52.553Z,99.99
2022-11-05T03:05:52.575Z,99.99
2022-11-05T03:06:53.505Z,99.99
2022-11-05T03:07:52.514Z,99.99
2022-11-05T03:08:52.522Z,99.99
2022-11-05T03:09:52.527Z,99.99
2022-11-05T03:10:52.574Z,99.99
2022-11-05T03:11:52.472Z,99.99
2022-11-05T03:12:52.511Z,99.99
2022-11-05T03:13:52.465Z,99.99
2022-11-05T03:14:52.431Z,99.99
2022-11-05T03:15:52.538Z,99.99
2022-11-05T03:16:52.465Z,99.99
2022-11-05T03:17:52.466Z,99.99
2022-11-05T03:18:52.411Z,99.99
2022-11-05T03:19:52.390Z,99.99
2022-11-05T03:20:52.345Z,99.99
2022-11-05T03:21:52.358Z,99.99
2022-11-05T03:22:52.326Z,99.99
2022-11-05T03:23:52.382Z,99.99
2022-11-05T03:24:52.333Z,99.99
2022-11-05T03:25:52.367Z,99.99
2022-11-05T03:26:52.372Z,99.99
2022-11-05T03:27:52.502Z,99.99
2022-11-05T03:28:52.306Z,99.99
2022-11-05T03:29:52.750Z,99.99
2022-11-05T03:30:52.262Z,99.99
2022-11-05T03:31:52.254Z,99.99
2022-11-05T03:32:52.227Z,99.99
2022-11-05T03:33:52.267Z,99.99
2022-11-05T03:34:52.165Z,99.99
2022-11-05T03:35:52.186Z,99.99
2022-11-05T03:36:52.155Z,99.99
2022-11-05T03:37:52.299Z,99.99
2022-11-05T03:38:52.132Z,99.99
2022-11-05T03:39:52.181Z,99.99
2022-11-05T03:40:53.115Z,99.99
2022-11-05T03:41:52.166Z,99.99
2022-11-05T03:42:52.068Z,99.99
2022-11-05T03:43:52.099Z,99.99
2022-11-05T03:44:52.126Z,99.99
2022-11-05T03:45:52.112Z,99.99
2022-11-05T03:46:52.082Z,99.99
2022-11-05T03:47:52.006Z,99.99
2022-11-05T03:48:52.190Z,99.99
2022-11-05T03:49:52.180Z,99.99
2022-11-05T03:50:52.020Z,99.99
2022-11-05T03:51:52.049Z,99.99
2022-11-05T03:52:51.950Z,99.99
2022-11-05T03:53:52.877Z,99.99
2022-11-05T03:54:52.017Z,99.99
2022-11-05T03:55:51.945Z,99.99
2022-11-05T03:56:53.346Z,99.99
2022-11-05T03:57:51.886Z,99.99
2022-11-05T03:58:57.561Z,99.99
2022-11-05T03:59:53.845Z,99.99
2022-11-05T04:00:51.853Z,99.99
2022-11-05T04:01:51.993Z,99.99
2022-11-05T04:02:51.895Z,99.99
2022-11-05T04:03:51.810Z,99.99
2022-11-05T04:04:51.818Z,99.99
2022-11-05T04:05:52.771Z,99.99
2022-11-05T04:06:51.947Z,99.99
2022-11-05T04:07:51.841Z,99.99
2022-11-05T04:08:51.872Z,99.99
2022-11-05T04:09:51.780Z,99.99
2022-11-05T04:10:51.723Z,99.99
2022-11-05T04:11:51.809Z,99.99
2022-11-05T04:12:51.779Z,99.99
2022-11-05T04:13:51.730Z,99.99
2022-11-05T04:14:51.676Z,99.99
2022-11-05T04:15:51.682Z,99.99
2022-11-05T04:16:51.669Z,99.99
2022-11-05T04:17:51.742Z,99.99
2022-11-05T04:18:51.897Z,99.99
2022-11-05T04:19:51.590Z,99.99
2022-11-05T04:20:51.658Z,99.99
2022-11-05T04:21:51.600Z,99.99
2022-11-05T04:22:51.591Z,99.99
2022-11-05T04:23:51.562Z,99.99
2022-11-05T04:24:51.532Z,99.99
2022-11-05T04:25:51.573Z,99.99
2022-11-05T04:26:51.529Z,99.99
2022-11-05T04:27:51.534Z,99.99
2022-11-05T04:28:51.522Z,99.99
2022-11-05T04:29:51.479Z,99.99
2022-11-05T04:30:51.541Z,99.99
2022-11-05T04:31:52.305Z,99.99
2022-11-05T04:32:51.453Z,99.99
2022-11-05T04:33:51.422Z,99.99
2022-11-05T04:34:51.440Z,99.99
2022-11-05T04:35:51.424Z,99.99
2022-11-05T04:36:51.443Z,99.99
2022-11-05T04:37:51.373Z,99.99
2022-11-05T04:38:51.513Z,99.99
2022-11-05T04:39:51.342Z,99.99
2022-11-05T04:40:51.352Z,99.99
2022-11-05T04:41:51.333Z,99.99
2022-11-05T04:42:51.329Z,99.99
2022-11-05T04:43:51.380Z,99.99
2022-11-05T04:44:51.833Z,99.99
2022-11-05T04:45:51.281Z,99.99
2022-11-05T04:46:51.301Z,99.99
2022-11-05T04:47:52.205Z,99.99
2022-11-05T04:48:51.440Z,99.99
2022-11-05T04:49:51.212Z,99.99
2022-11-05T04:50:51.321Z,99.99
2022-11-05T04:51:51.236Z,99.99
2022-11-05T04:52:51.184Z,99.99
2022-11-05T04:53:51.203Z,99.99
2022-11-05T04:54:51.254Z,99.99
2022-11-05T04:55:51.635Z,99.99
2022-11-05T04:56:51.477Z,99.99
2022-11-05T04:57:51.203Z,99.99
2022-11-05T04:58:51.134Z,99.99
2022-11-05T04:59:51.183Z,99.99
2022-11-05T05:00:51.140Z,99.99
2022-11-05T05:01:52.043Z,99.99
2022-11-05T05:02:51.075Z,99.99
2022-11-05T05:03:51.023Z,99.99
2022-11-05T05:04:51.053Z,99.99
2022-11-05T05:05:53.802Z,99.99
2022-11-05T05:06:51.092Z,99.99
2022-11-05T05:07:51.938Z,99.99
2022-11-05T05:08:51.306Z,99.99
2022-11-05T05:09:51.029Z,99.99
2022-11-05T05:10:51.044Z,99.99
2022-11-05T05:11:50.985Z,99.99
2022-11-05T05:12:50.935Z,99.99
2022-11-05T05:13:50.904Z,99.99
2022-11-05T05:14:50.883Z,99.99
2022-11-05T05:15:51.018Z,99.99
2022-11-05T05:16:51.064Z,99.99
2022-11-05T05:17:50.899Z,99.99
2022-11-05T05:18:50.861Z,99.99
2022-11-05T05:19:50.866Z,99.99
2022-11-05T05:20:50.877Z,99.99
2022-11-05T05:21:50.919Z,99.99
2022-11-05T05:22:50.784Z,99.99
2022-11-05T05:23:50.808Z,99.99
2022-11-05T05:24:52.942Z,99.99
2022-11-05T05:25:50.793Z,99.99
2022-11-05T05:26:51.631Z,99.99
2022-11-05T05:27:50.773Z,99.99
2022-11-05T05:28:50.757Z,99.99
2022-11-05T05:29:50.779Z,99.99
2022-11-05T05:30:53.636Z,99.99
2022-11-05T05:31:51.723Z,99.99
2022-11-05T05:32:50.675Z,99.99
2022-11-05T05:33:50.667Z,99.99
2022-11-05T05:34:50.687Z,99.99
2022-11-05T05:35:51.410Z,99.99
2022-11-05T05:36:51.699Z,99.99
2022-11-05T05:37:50.628Z,99.99
2022-11-05T05:38:50.595Z,99.99
2022-11-05T05:39:50.608Z,99.99
2022-11-05T05:40:50.678Z,99.99
2022-11-05T05:41:50.598Z,99.99
2022-11-05T05:42:50.748Z,99.99
2022-11-05T05:43:50.569Z,99.99
2022-11-05T05:44:50.588Z,99.99
2022-11-05T05:45:50.499Z,99.99
2022-11-05T05:46:50.880Z,99.99
2022-11-05T05:47:51.061Z,99.99
2022-11-05T05:48:50.848Z,99.99
2022-11-05T05:49:50.468Z,99.99
2022-11-05T05:50:50.509Z,99.99
2022-11-05T05:51:50.438Z,99.99
2022-11-05T05:52:50.398Z,99.99
2022-11-05T05:53:50.450Z,99.99
2022-11-05T05:54:50.374Z,99.99
2022-11-05T05:55:50.385Z,99.99
2022-11-05T05:56:51.309Z,99.99
2022-11-05T05:57:50.424Z,99.99
2022-11-05T05:58:50.372Z,99.99
2022-11-05T05:59:50.367Z,99.99
2022-11-05T06:00:51.440Z,99.99
2022-11-05T06:01:50.573Z,99.99
2022-11-05T06:02:50.451Z,99.99
2022-11-05T06:03:50.290Z,99.99
2022-11-05T06:04:50.280Z,99.99
2022-11-05T06:05:50.338Z,99.99
2022-11-05T06:06:51.381Z,99.99
2022-11-05T06:07:50.382Z,99.99
2022-11-05T06:08:50.291Z,99.99
2022-11-05T06:09:50.211Z,99.99
2022-11-05T06:10:50.275Z,99.99
2022-11-05T06:11:50.229Z,99.99
2022-11-05T06:12:50.229Z,99.99
2022-11-05T06:13:50.151Z,99.99
2022-11-05T06:14:50.151Z,99.99
2022-11-05T06:15:50.124Z,99.99
2022-11-05T06:16:50.194Z,99.99
2022-11-05T06:17:50.100Z,99.99
2022-11-05T06:18:50.104Z,99.99
2022-11-05T06:19:50.087Z,99.99
2022-11-05T06:20:50.042Z,99.99
2022-11-05T06:21:50.041Z,99.99
2022-11-05T06:22:50.083Z,99.99
2022-11-05T06:23:50.041Z,99.99
2022-11-05T06:24:50.136Z,99.99
2022-11-05T06:25:49.981Z,99.99
2022-11-05T06:26:49.973Z,99.99
2022-11-05T06:27:49.979Z,99.99
2022-11-05T06:28:50.064Z,99.99
2022-11-05T06:29:50.882Z,99.99
2022-11-05T06:30:49.995Z,99.99
2022-11-05T06:31:49.954Z,99.99
2022-11-05T06:32:49.886Z,99.99
2022-11-05T06:33:49.887Z,99.99
2022-11-05T06:34:49.896Z,99.99
2022-11-05T06:35:49.890Z,99.99
2022-11-05T06:36:49.919Z,99.99
2022-11-05T06:37:49.831Z,99.99
2022-11-05T06:38:49.959Z,99.99
2022-11-05T06:39:49.834Z,99.99
2022-11-05T06:40:49.807Z,99.99
2022-11-05T06:42:16.464Z,99.99
2022-11-05T06:42:50.763Z,99.99
2022-11-05T06:43:49.891Z,99.99
2022-11-05T06:44:49.752Z,99.99
2022-11-05T06:45:49.721Z,99.99
2022-11-05T06:46:49.859Z,99.99
2022-11-05T06:47:49.700Z,99.99
2022-11-05T06:48:49.714Z,99.99
2022-11-05T06:49:49.942Z,99.99
2022-11-05T06:50:49.732Z,99.99
2022-11-05T06:51:49.732Z,99.99
2022-11-05T06:52:49.667Z,99.99
2022-11-05T06:53:49.711Z,99.99
2022-11-05T06:54:49.652Z,99.99
2022-11-05T06:55:49.695Z,99.99
2022-11-05T06:56:49.684Z,99.99
2022-11-05T06:57:49.601Z,99.99
2022-11-05T06:58:49.583Z,99.99
2022-11-05T07:00:56.708Z,99.99
2022-11-05T07:01:56.691Z,99.99
2022-11-05T07:02:56.511Z,99.99
2022-11-05T07:03:56.569Z,99.99
2022-11-05T07:04:56.641Z,99.99
2022-11-05T07:05:57.496Z,99.99
2022-11-05T07:06:56.494Z,99.99
2022-11-05T07:07:56.479Z,99.99
2022-11-05T07:08:56.452Z,99.99
2022-11-05T07:09:56.454Z,99.99
2022-11-05T07:10:56.512Z,99.99
2022-11-05T07:11:57.423Z,99.99
2022-11-05T07:12:56.415Z,99.99
2022-11-05T07:13:56.684Z,99.99
2022-11-05T07:14:56.384Z,99.99
2022-11-05T07:15:56.430Z,99.99
2022-11-05T07:16:57.453Z,99.99
2022-11-05T07:17:56.304Z,99.99
2022-11-05T07:18:56.306Z,99.99
2022-11-05T07:19:56.297Z,99.99
2022-11-05T07:20:56.364Z,99.99
2022-11-05T07:21:56.256Z,99.99
2022-11-05T07:22:56.254Z,99.99
2022-11-05T07:23:57.233Z,99.99
2022-11-05T07:24:56.275Z,99.99
2022-11-05T07:25:56.277Z,99.99
2022-11-05T07:26:56.623Z,99.99
2022-11-05T07:27:56.222Z,99.99
2022-11-05T07:28:57.325Z,99.99
2022-11-05T07:29:56.175Z,99.99
2022-11-05T07:30:56.758Z,99.99
2022-11-05T07:31:57.039Z,99.99
2022-11-05T07:32:56.257Z,99.99
2022-11-05T07:33:56.331Z,99.99
2022-11-05T07:34:56.116Z,99.99
2022-11-05T07:35:56.114Z,99.99
2022-11-05T07:36:57.040Z,99.99
2022-11-05T07:37:56.075Z,99.99
2022-11-05T07:39:00.083Z,99.99
2022-11-05T07:39:56.075Z,99.99
2022-11-05T07:40:56.078Z,99.99
2022-11-05T07:41:56.006Z,99.99
2022-11-05T07:42:56.072Z,99.99
2022-11-05T07:43:56.023Z,99.99
2022-11-05T07:44:56.038Z,99.99
2022-11-05T07:45:55.976Z,99.99
2022-11-05T07:46:56.265Z,99.99
2022-11-05T07:47:55.987Z,99.99
2022-11-05T07:48:55.949Z,99.99
2022-11-05T07:49:55.927Z,99.99
2022-11-05T07:50:55.942Z,99.99
2022-11-05T07:51:55.915Z,99.99
2022-11-05T07:52:55.929Z,99.99
2022-11-05T07:53:55.938Z,99.99
2022-11-05T07:54:55.917Z,99.99
2022-11-05T07:55:55.861Z,99.99
2022-11-05T07:56:55.847Z,99.99
2022-11-05T07:57:55.856Z,99.99
2022-11-05T07:58:55.850Z,99.99
2022-11-05T07:59:55.788Z,99.99
2022-11-05T08:00:55.954Z,99.99
2022-11-05T08:01:56.025Z,99.99
2022-11-05T08:02:55.845Z,99.99
2022-11-05T08:03:55.789Z,99.99
2022-11-05T08:04:55.727Z,99.99
2022-11-05T08:05:55.711Z,99.99
2022-11-05T08:06:55.720Z,99.99
2022-11-05T08:07:55.759Z,99.99
2022-11-05T08:08:55.677Z,99.99
2022-11-05T08:09:55.712Z,99.99
2022-11-05T08:10:55.689Z,99.99
2022-11-05T08:12:01.445Z,99.99
2022-11-05T08:12:56.625Z,99.99
2022-11-05T08:13:55.642Z,99.99
2022-11-05T08:14:55.671Z,99.99
2022-11-05T08:15:55.606Z,99.99
2022-11-05T08:16:56.821Z,99.99
2022-11-05T08:17:55.612Z,99.99
2022-11-05T08:18:55.628Z,99.99
2022-11-05T08:19:55.542Z,99.99
2022-11-05T08:20:55.519Z,99.99
2022-11-05T08:21:55.653Z,99.99
2022-11-05T08:22:55.541Z,99.99
2022-11-05T08:23:55.521Z,99.99
2022-11-05T08:24:55.460Z,99.99
2022-11-05T08:25:55.511Z,99.99
2022-11-05T08:26:55.481Z,99.99
2022-11-05T08:27:55.591Z,99.99
2022-11-05T08:28:55.632Z,99.99
2022-11-05T08:29:55.414Z,99.99
2022-11-05T08:30:55.471Z,99.99
2022-11-05T08:31:55.416Z,99.99
2022-11-05T08:32:55.401Z,99.99
2022-11-05T08:34:01.284Z,99.99
2022-11-05T08:34:56.393Z,99.99
2022-11-05T08:35:55.481Z,99.99
2022-11-05T08:36:56.431Z,99.99
2022-11-05T08:37:55.372Z,99.99
2022-11-05T08:38:55.372Z,99.99
2022-11-05T08:39:55.295Z,99.99
2022-11-05T08:40:55.335Z,99.99
2022-11-05T08:41:55.267Z,99.99
2022-11-05T08:42:55.236Z,99.99
2022-11-05T08:43:55.262Z,99.99
2022-11-05T08:44:55.234Z,99.99
2022-11-05T08:45:55.252Z,99.99
2022-11-05T08:46:55.840Z,99.99
2022-11-05T08:47:55.216Z,99.99
2022-11-05T08:48:55.177Z,99.99
2022-11-05T08:49:55.166Z,99.99
2022-11-05T08:50:55.158Z,99.99
2022-11-05T08:51:55.203Z,99.99
2022-11-05T08:52:55.105Z,99.99
2022-11-05T08:53:55.132Z,99.99
2022-11-05T08:54:55.115Z,99.99
2022-11-05T08:55:55.120Z,99.99
2022-11-05T08:56:55.165Z,99.99
2022-11-05T08:57:55.077Z,99.99
2022-11-05T08:58:55.046Z,99.99
2022-11-05T08:59:55.036Z,99.99
2022-11-05T09:00:59.008Z,99.99
2022-11-05T09:01:56.205Z,99.99
2022-11-05T09:02:54.984Z,99.99
2022-11-05T09:03:55.014Z,99.99
2022-11-05T09:04:54.957Z,99.99
2022-11-05T09:05:54.969Z,99.99
2022-11-05T09:06:55.596Z,99.99
2022-11-05T09:08:00.490Z,99.99
2022-11-05T09:08:55.943Z,99.99
2022-11-05T09:09:55.044Z,99.99
2022-11-05T09:10:54.980Z,99.99
2022-11-05T09:12:11.885Z,99.99
2022-11-05T09:12:55.906Z,99.99
2022-11-05T09:13:54.878Z,99.99
2022-11-05T09:14:54.828Z,99.99
2022-11-05T09:15:54.817Z,99.99
2022-11-05T09:16:55.547Z,99.99
2022-11-05T09:17:54.975Z,99.99
2022-11-05T09:18:54.808Z,99.99
2022-11-05T09:19:54.850Z,99.99
2022-11-05T09:20:54.779Z,99.99
2022-11-05T09:21:54.768Z,99.99
2022-11-05T09:22:54.757Z,99.99
2022-11-05T09:23:54.785Z,99.99
2022-11-05T09:24:54.739Z,99.99
2022-11-05T09:25:54.726Z,99.99
2022-11-05T09:26:54.928Z,99.91
2022-11-05T09:27:54.824Z,99.71
2022-11-05T09:28:54.748Z,99.51
2022-11-05T09:29:54.718Z,99.25
2022-11-05T09:30:54.649Z,99.05
2022-11-05T09:31:54.627Z,99.05
2022-11-05T09:32:54.651Z,99.05
2022-11-05T09:33:54.651Z,98.53
2022-11-05T09:34:54.598Z,98.69
2022-11-05T09:35:54.671Z,98.59
2022-11-05T09:36:54.657Z,98.59
2022-11-05T09:37:59.736Z,98.18
2022-11-05T09:38:55.543Z,97.97
2022-11-05T09:39:54.509Z,97.66
2022-11-05T09:40:54.521Z,97.62
2022-11-05T09:41:54.527Z,97.52
2022-11-05T09:42:54.479Z,97.62
2022-11-05T09:43:54.471Z,97.52
2022-11-05T09:44:54.523Z,97.41
2022-11-05T09:45:54.448Z,97.00
2022-11-05T09:46:54.641Z,96.44
2022-11-05T09:47:54.518Z,95.93
2022-11-05T09:48:54.390Z,95.42
2022-11-05T09:49:54.454Z,95.72
2022-11-05T09:50:54.443Z,95.57
2022-11-05T09:51:55.376Z,95.68
2022-11-05T09:52:54.451Z,95.37
2022-11-05T09:53:54.313Z,94.96
2022-11-05T09:54:54.343Z,94.65
2022-11-05T09:55:54.332Z,94.85
2022-11-05T09:56:54.605Z,94.45
2022-11-05T09:57:54.296Z,94.34
2022-11-05T09:58:54.272Z,94.04
2022-11-05T09:59:54.324Z,94.04
2022-11-05T10:00:54.338Z,93.42
2022-11-05T10:01:54.325Z,93.21
2022-11-05T10:02:54.226Z,93.27
2022-11-05T10:03:54.356Z,93.38
2022-11-05T10:04:54.329Z,93.48
2022-11-05T10:05:54.272Z,92.97
2022-11-05T10:06:54.966Z,92.76
2022-11-05T10:07:54.185Z,92.55
2022-11-05T10:08:54.196Z,92.66
2022-11-05T10:09:54.149Z,92.55
2022-11-05T10:10:54.187Z,92.04
2022-11-05T10:11:54.191Z,92.04
2022-11-05T10:12:54.106Z,92.55
2022-11-05T10:13:54.218Z,92.55
2022-11-05T10:14:54.096Z,92.35
2022-11-05T10:15:54.095Z,92.46
2022-11-05T10:16:55.025Z,92.66
2022-11-05T10:17:54.036Z,92.76
2022-11-05T10:18:54.039Z,92.97
2022-11-05T10:19:54.007Z,92.35
2022-11-05T10:20:54.005Z,91.94
2022-11-05T10:22:10.434Z,92.51
2022-11-05T10:22:55.002Z,92.21
2022-11-05T10:23:53.979Z,91.18
2022-11-05T10:24:53.918Z,91.18
2022-11-05T10:25:53.908Z,89.75
2022-11-05T10:26:54.043Z,88.88
2022-11-05T10:27:53.907Z,89.70
2022-11-05T10:28:54.617Z,90.01
2022-11-05T10:29:53.875Z,89.90
2022-11-05T10:30:53.873Z,89.29
2022-11-05T10:31:53.891Z,89.09
2022-11-05T10:32:53.851Z,89.09
2022-11-05T10:33:53.830Z,88.47
2022-11-05T10:34:53.789Z,88.12
2022-11-05T10:35:53.810Z,88.43
2022-11-05T10:36:54.640Z,88.94
2022-11-05T10:37:53.803Z,89.36
2022-11-05T10:38:53.839Z,89.87
2022-11-05T10:39:53.774Z,89.87
2022-11-05T10:40:53.741Z,89.66
2022-11-05T10:41:54.675Z,89.97
2022-11-05T10:42:53.739Z,89.76
2022-11-05T10:43:53.679Z,90.28
2022-11-05T10:44:53.665Z,90.48
2022-11-05T10:45:53.665Z,90.28
2022-11-05T10:46:53.653Z,90.17
2022-11-05T10:47:53.805Z,90.28
2022-11-05T10:48:53.674Z,89.97
2022-11-05T10:49:53.612Z,89.87
2022-11-05T10:50:53.614Z,89.66
2022-11-05T10:51:53.573Z,89.76
2022-11-05T10:52:53.633Z,89.97
2022-11-05T10:53:58.747Z,89.00
2022-11-05T10:54:54.565Z,89.00
2022-11-05T10:55:53.563Z,89.31
2022-11-05T10:56:53.723Z,89.00
2022-11-05T10:57:53.580Z,88.80
2022-11-05T10:58:53.495Z,88.24
2022-11-05T10:59:53.476Z,88.76
2022-11-05T11:00:53.615Z,88.35
2022-11-05T11:01:53.619Z,88.14
2022-11-05T11:02:53.437Z,88.51
2022-11-05T11:03:53.535Z,88.62
2022-11-05T11:04:53.444Z,87.59
2022-11-05T11:05:53.458Z,87.70
2022-11-05T11:06:53.423Z,87.79
2022-11-05T11:07:53.617Z,87.59
2022-11-05T11:08:53.391Z,86.88
2022-11-05T11:09:53.348Z,87.08
2022-11-05T11:10:53.370Z,87.12
2022-11-05T11:11:53.398Z,87.12
2022-11-05T11:12:53.318Z,87.22
2022-11-05T11:13:53.336Z,87.73
2022-11-05T11:14:53.295Z,87.94
2022-11-05T11:15:53.300Z,87.47
2022-11-05T11:16:53.285Z,87.77
2022-11-05T11:17:53.288Z,87.88
2022-11-05T11:18:53.228Z,88.08
2022-11-05T11:19:53.273Z,87.98
2022-11-05T11:20:53.231Z,87.16
2022-11-05T11:21:53.302Z,87.26
2022-11-05T11:22:53.189Z,87.26
2022-11-05T11:23:53.218Z,87.57
2022-11-05T11:24:53.198Z,87.88
2022-11-05T11:25:53.226Z,87.88
2022-11-05T11:26:54.112Z,87.61
2022-11-05T11:27:53.213Z,87.71
2022-11-05T11:28:53.270Z,87.82
2022-11-05T11:29:53.201Z,87.92
2022-11-05T11:30:53.109Z,87.92
2022-11-05T11:31:53.222Z,88.43
2022-11-05T11:32:53.072Z,88.23
2022-11-05T11:33:53.073Z,88.12
2022-11-05T11:34:53.051Z,88.33
2022-11-05T11:35:53.029Z,88.53
2022-11-05T11:36:53.025Z,88.37
2022-11-05T11:37:53.010Z,88.57
2022-11-05T11:38:52.981Z,88.47
2022-11-05T11:39:52.994Z,88.37
2022-11-05T11:40:52.975Z,88.57
2022-11-05T11:41:52.934Z,88.37
2022-11-05T11:42:52.923Z,88.27
2022-11-05T11:43:52.907Z,88.06
2022-11-05T11:44:52.932Z,87.96
2022-11-05T11:45:54.166Z,87.85
2022-11-05T11:46:52.937Z,87.65
2022-11-05T11:47:52.913Z,87.96
2022-11-05T11:48:52.871Z,88.06
2022-11-05T11:49:52.867Z,88.06
2022-11-05T11:50:52.844Z,87.61
2022-11-05T11:51:52.836Z,87.30
2022-11-05T11:52:52.847Z,87.61
2022-11-05T11:53:52.806Z,86.99
2022-11-05T11:54:52.763Z,86.96
2022-11-05T11:55:52.769Z,86.85
2022-11-05T11:56:53.617Z,86.96
2022-11-05T11:57:52.818Z,87.06
2022-11-05T11:58:52.791Z,86.34
2022-11-05T12:00:08.196Z,86.51
2022-11-05T12:00:53.748Z,86.30
2022-11-05T12:01:52.831Z,86.20
2022-11-05T12:02:56.002Z,86.20
2022-11-05T12:03:53.648Z,86.10
2022-11-05T12:04:52.651Z,85.79
2022-11-05T12:05:52.673Z,85.48
2022-11-05T12:06:52.699Z,85.69
2022-11-05T12:07:52.653Z,86.20
2022-11-05T12:09:00.549Z,86.40
2022-11-05T12:09:53.594Z,86.61
2022-11-05T12:10:52.587Z,86.65
2022-11-05T12:11:52.590Z,86.24
2022-11-05T12:12:52.537Z,85.58
2022-11-05T12:13:52.560Z,85.38
2022-11-05T12:14:53.429Z,84.87
2022-11-05T12:15:52.535Z,85.07
2022-11-05T12:16:52.531Z,84.77
2022-11-05T12:17:52.490Z,84.97
2022-11-05T12:18:52.492Z,85.07
2022-11-05T12:19:52.463Z,85.17
2022-11-05T12:20:58.041Z,85.38
2022-11-05T12:21:53.694Z,85.69
2022-11-05T12:22:53.249Z,85.69
2022-11-05T12:23:53.581Z,85.99
2022-11-05T12:24:52.520Z,85.89
2022-11-05T12:25:52.390Z,85.79
2022-11-05T12:26:53.372Z,84.87
2022-11-05T12:27:52.374Z,84.15
2022-11-05T12:29:17.218Z,83.60
2022-11-05T12:29:53.327Z,84.11
2022-11-05T12:30:52.340Z,84.01
2022-11-05T12:31:52.401Z,83.70
2022-11-05T12:32:52.432Z,84.11
2022-11-05T12:33:52.292Z,83.81
2022-11-05T12:34:52.281Z,84.11
2022-11-05T12:35:57.625Z,84.22
2022-11-05T12:36:53.345Z,83.81
2022-11-05T12:37:52.234Z,83.39
2022-11-05T12:38:52.205Z,83.46
2022-11-05T12:39:52.253Z,83.66
2022-11-05T12:40:52.302Z,83.05
2022-11-05T12:41:52.230Z,83.01
2022-11-05T12:42:52.810Z,82.81
2022-11-05T12:43:52.148Z,83.11
2022-11-05T12:44:52.157Z,82.40
2022-11-05T12:45:52.112Z,81.79
2022-11-05T12:46:52.273Z,82.09
2022-11-05T12:47:52.130Z,81.88
2022-11-05T12:48:52.594Z,81.95
2022-11-05T12:49:53.141Z,80.83
2022-11-05T12:50:52.057Z,81.20
2022-11-05T12:51:52.078Z,81.10
2022-11-05T12:52:52.085Z,80.28
2022-11-05T12:53:52.009Z,80.69